createdAt,value
2019-05-11T00:00:39.429Z,0.00
2019-05-11T00:01:39.413Z,0.00
2019-05-11T00:02:39.415Z,0.00
2019-05-11T00:03:39.435Z,0.00
2019-05-11T00:04:39.379Z,0.00
2019-05-11T00:05:39.373Z,0.00
2019-05-11T00:06:39.357Z,0.00
2019-05-11T00:07:39.388Z,0.00
2019-05-11T00:08:39.336Z,0.00
2019-05-11T00:09:39.326Z,0.00
2019-05-11T00:10:39.316Z,0.00
2019-05-11T00:11:39.330Z,0.00
2019-05-11T00:12:39.292Z,0.00
2019-05-11T00:13:39.283Z,0.00
2019-05-11T00:14:39.272Z,0.00
2019-05-11T00:15:39.263Z,0.00
2019-05-11T00:16:39.248Z,0.00
2019-05-11T00:17:39.239Z,0.00
2019-05-11T00:18:39.229Z,0.00
2019-05-11T00:19:39.217Z,0.00
2019-05-11T00:20:39.209Z,0.00
2019-05-11T00:21:39.199Z,0.00
2019-05-11T00:22:39.186Z,0.00
2019-05-11T00:23:39.180Z,0.00
2019-05-11T00:24:39.173Z,0.00
2019-05-11T00:25:39.152Z,0.00
2019-05-11T00:26:39.142Z,0.00
2019-05-11T00:27:39.131Z,0.00
2019-05-11T00:28:39.120Z,0.00
2019-05-11T00:29:39.160Z,0.00
2019-05-11T00:30:39.099Z,0.00
2019-05-11T00:31:39.091Z,0.00
2019-05-11T00:32:39.077Z,0.00
2019-05-11T00:33:39.067Z,0.00
2019-05-11T00:34:39.056Z,0.00
2019-05-11T00:35:39.047Z,0.00
2019-05-11T00:36:39.040Z,0.00
2019-05-11T00:37:39.024Z,0.00
2019-05-11T00:38:39.012Z,0.00
2019-05-11T00:39:39.002Z,0.00
2019-05-11T00:40:38.991Z,0.00
2019-05-11T00:41:38.981Z,0.00
2019-05-11T00:42:38.972Z,0.00
2019-05-11T00:43:38.961Z,0.00
2019-05-11T00:44:38.949Z,0.00
2019-05-11T00:45:38.937Z,0.00
2019-05-11T00:46:38.928Z,0.00
2019-05-11T00:47:38.915Z,0.00
2019-05-11T00:48:38.907Z,0.00
2019-05-11T00:49:38.895Z,0.00
2019-05-11T00:50:40.065Z,0.00
2019-05-11T00:51:38.873Z,0.00
2019-05-11T00:52:38.866Z,0.00
2019-05-11T00:53:38.851Z,0.00
2019-05-11T00:54:38.841Z,0.00
2019-05-11T00:55:38.831Z,0.00
2019-05-11T00:56:38.820Z,0.00
2019-05-11T00:57:38.808Z,0.00
2019-05-11T00:58:38.802Z,0.00
2019-05-11T00:59:38.787Z,0.00
2019-05-11T01:00:38.789Z,0.00
2019-05-11T01:01:38.765Z,0.00
2019-05-11T01:02:38.755Z,0.00
2019-05-11T01:03:38.745Z,0.00
2019-05-11T01:04:38.734Z,0.00
2019-05-11T01:05:38.721Z,0.00
2019-05-11T01:06:38.714Z,0.00
2019-05-11T01:07:38.701Z,0.00
2019-05-11T01:08:38.689Z,0.00
2019-05-11T01:09:38.678Z,0.00
2019-05-11T01:10:42.815Z,0.00
2019-05-11T01:11:38.659Z,0.00
2019-05-11T01:12:38.649Z,0.00
2019-05-11T01:13:38.636Z,0.00
2019-05-11T01:14:38.624Z,0.00
2019-05-11T01:15:38.613Z,0.00
2019-05-11T01:16:38.605Z,0.00
2019-05-11T01:17:38.608Z,0.00
2019-05-11T01:18:38.581Z,0.00
2019-05-11T01:19:38.571Z,0.00
2019-05-11T01:20:38.564Z,0.00
2019-05-11T01:21:38.549Z,0.00
2019-05-11T01:22:38.548Z,0.00
2019-05-11T01:23:38.527Z,0.00
2019-05-11T01:24:38.518Z,0.00
2019-05-11T01:25:38.507Z,0.00
2019-05-11T01:26:38.499Z,0.00
2019-05-11T01:27:38.498Z,0.00
2019-05-11T01:28:38.475Z,0.00
2019-05-11T01:29:38.467Z,0.00
2019-05-11T01:30:38.948Z,0.00
2019-05-11T01:31:38.455Z,0.00
2019-05-11T01:32:38.431Z,0.00
2019-05-11T01:33:38.423Z,0.00
2019-05-11T01:34:38.454Z,0.00
2019-05-11T01:35:38.430Z,0.00
2019-05-11T01:36:38.391Z,0.00
2019-05-11T01:37:38.377Z,0.00
2019-05-11T01:38:38.365Z,0.00
2019-05-11T01:39:38.377Z,0.00
2019-05-11T01:40:38.346Z,0.00
2019-05-11T01:41:38.337Z,0.00
2019-05-11T01:42:38.323Z,0.00
2019-05-11T01:43:38.313Z,0.00
2019-05-11T01:44:38.303Z,0.00
2019-05-11T01:45:38.291Z,0.00
2019-05-11T01:46:38.280Z,0.00
2019-05-11T01:47:38.270Z,0.00
2019-05-11T01:48:38.260Z,0.00
2019-05-11T01:49:38.249Z,0.00
2019-05-11T01:50:38.244Z,0.00
2019-05-11T01:51:38.226Z,0.00
2019-05-11T01:52:38.219Z,0.00
2019-05-11T01:53:38.205Z,0.00
2019-05-11T01:54:38.193Z,0.00
2019-05-11T01:55:38.184Z,0.00
2019-05-11T01:56:38.173Z,0.00
2019-05-11T01:57:38.166Z,0.00
2019-05-11T01:58:38.151Z,0.00
2019-05-11T01:59:38.142Z,0.00
2019-05-11T02:00:38.130Z,0.00
2019-05-11T02:01:38.119Z,0.00
2019-05-11T02:02:38.115Z,0.00
2019-05-11T02:03:38.101Z,0.00
2019-05-11T02:04:38.087Z,0.00
2019-05-11T02:05:38.077Z,0.00
2019-05-11T02:06:38.065Z,0.00
2019-05-11T02:07:38.056Z,0.00
2019-05-11T02:08:38.044Z,0.00
2019-05-11T02:09:38.032Z,0.00
2019-05-11T02:10:38.027Z,0.00
2019-05-11T02:11:38.013Z,0.00
2019-05-11T02:12:38.003Z,0.00
2019-05-11T02:13:37.990Z,0.00
2019-05-11T02:14:37.982Z,0.00
2019-05-11T02:15:37.971Z,0.00
2019-05-11T02:16:37.963Z,0.00
2019-05-11T02:17:37.950Z,0.00
2019-05-11T02:18:37.936Z,0.00
2019-05-11T02:19:37.925Z,0.00
2019-05-11T02:20:37.915Z,0.00
2019-05-11T02:21:37.903Z,0.00
2019-05-11T02:22:37.894Z,0.00
2019-05-11T02:23:37.883Z,0.00
2019-05-11T02:24:37.875Z,0.00
2019-05-11T02:25:37.860Z,0.00
2019-05-11T02:26:37.853Z,0.00
2019-05-11T02:27:37.843Z,0.00
2019-05-11T02:28:37.829Z,0.00
2019-05-11T02:29:41.191Z,0.00
2019-05-11T02:30:37.823Z,0.00
2019-05-11T02:31:37.798Z,0.00
2019-05-11T02:32:37.789Z,0.00
2019-05-11T02:33:37.783Z,0.00
2019-05-11T02:34:37.767Z,0.00
2019-05-11T02:35:37.757Z,0.00
2019-05-11T02:36:37.747Z,0.00
2019-05-11T02:37:37.738Z,0.00
2019-05-11T02:38:37.727Z,0.00
2019-05-11T02:39:37.713Z,0.00
2019-05-11T02:40:37.702Z,4.00
2019-05-11T02:41:38.309Z,4.00
2019-05-11T02:42:37.682Z,4.00
2019-05-11T02:43:37.670Z,0.00
2019-05-11T02:44:37.659Z,4.00
2019-05-11T02:45:37.650Z,4.00
2019-05-11T02:46:37.706Z,8.00
2019-05-11T02:47:37.629Z,4.00
2019-05-11T02:48:37.615Z,8.00
2019-05-11T02:49:37.608Z,8.00
2019-05-11T02:50:37.615Z,8.00
2019-05-11T02:51:37.585Z,12.00
2019-05-11T02:52:37.578Z,12.00
2019-05-11T02:53:37.563Z,12.00
2019-05-11T02:54:37.552Z,16.00
2019-05-11T02:55:37.546Z,12.00
2019-05-11T02:56:37.532Z,16.00
2019-05-11T02:57:37.538Z,16.00
2019-05-11T02:58:37.512Z,20.00
2019-05-11T02:59:37.501Z,24.00
2019-05-11T03:00:37.488Z,28.00
2019-05-11T03:01:37.478Z,32.00
2019-05-11T03:02:37.466Z,32.00
2019-05-11T03:03:37.457Z,40.00
2019-05-11T03:04:37.451Z,44.00
2019-05-11T03:05:37.436Z,48.00
2019-05-11T03:06:37.452Z,60.00
2019-05-11T03:07:37.417Z,64.00
2019-05-11T03:08:37.405Z,72.00
2019-05-11T03:09:37.394Z,76.00
2019-05-11T03:10:37.385Z,88.00
2019-05-11T03:11:54.190Z,96.00
2019-05-11T03:12:38.361Z,104.00
2019-05-11T03:13:37.361Z,116.00
2019-05-11T03:14:37.343Z,124.00
2019-05-11T03:15:37.330Z,140.00
2019-05-11T03:16:37.318Z,152.00
2019-05-11T03:17:37.312Z,168.00
2019-05-11T03:18:37.307Z,184.00
2019-05-11T03:19:37.286Z,200.00
2019-05-11T03:20:37.277Z,216.00
2019-05-11T03:21:37.274Z,228.00
2019-05-11T03:22:37.255Z,244.00
2019-05-11T03:23:37.243Z,260.00
2019-05-11T03:24:37.233Z,284.00
2019-05-11T03:25:37.224Z,304.00
2019-05-11T03:26:37.212Z,328.00
2019-05-11T03:27:37.206Z,348.00
2019-05-11T03:28:37.190Z,368.00
2019-05-11T03:29:37.182Z,396.00
2019-05-11T03:30:37.182Z,432.00
2019-05-11T03:31:37.159Z,472.00
2019-05-11T03:32:37.149Z,508.00
2019-05-11T03:33:37.139Z,532.00
2019-05-11T03:34:37.137Z,532.00
2019-05-11T03:35:37.120Z,524.00
2019-05-11T03:36:37.108Z,524.00
2019-05-11T03:37:37.092Z,536.00
2019-05-11T03:38:37.085Z,560.00
2019-05-11T03:39:37.078Z,596.00
2019-05-11T03:40:37.062Z,636.00
2019-05-11T03:41:37.051Z,672.00
2019-05-11T03:42:37.042Z,704.00
2019-05-11T03:43:37.031Z,768.00
2019-05-11T03:44:37.020Z,860.00
2019-05-11T03:45:37.009Z,952.00
2019-05-11T03:46:36.996Z,1012.00
2019-05-11T03:47:36.986Z,1028.00
2019-05-11T03:48:36.975Z,960.00
2019-05-11T03:49:36.965Z,860.00
2019-05-11T03:50:36.954Z,792.00
2019-05-11T03:51:36.975Z,748.00
2019-05-11T03:52:36.935Z,724.00
2019-05-11T03:53:36.920Z,728.00
2019-05-11T03:54:36.926Z,744.00
2019-05-11T03:55:36.901Z,780.00
2019-05-11T03:56:36.888Z,836.00
2019-05-11T03:57:36.879Z,888.00
2019-05-11T03:58:36.869Z,904.00
2019-05-11T03:59:36.857Z,908.00
2019-05-11T04:00:36.848Z,912.00
2019-05-11T04:01:36.841Z,904.00
2019-05-11T04:02:36.830Z,888.00
2019-05-11T04:03:36.812Z,868.00
2019-05-11T04:04:36.815Z,856.00
2019-05-11T04:05:36.803Z,868.00
2019-05-11T04:06:36.783Z,896.00
2019-05-11T04:07:36.773Z,940.00
2019-05-11T04:08:36.760Z,992.00
2019-05-11T04:09:36.752Z,1048.00
2019-05-11T04:10:36.739Z,1092.00
2019-05-11T04:11:36.753Z,1128.00
2019-05-11T04:12:36.717Z,1152.00
2019-05-11T04:13:36.707Z,1156.00
2019-05-11T04:14:36.695Z,1164.00
2019-05-11T04:15:36.684Z,1168.00
2019-05-11T04:16:36.681Z,1176.00
2019-05-11T04:17:36.663Z,1192.00
2019-05-11T04:18:36.656Z,1220.00
2019-05-11T04:19:36.640Z,1260.00
2019-05-11T04:20:36.631Z,1312.00
2019-05-11T04:21:36.624Z,1380.00
2019-05-11T04:22:36.610Z,1472.00
2019-05-11T04:23:36.597Z,1588.00
2019-05-11T04:24:36.591Z,1724.00
2019-05-11T04:25:36.578Z,1884.00
2019-05-11T04:26:36.567Z,2056.00
2019-05-11T04:27:36.555Z,2284.00
2019-05-11T04:28:36.544Z,2552.00
2019-05-11T04:29:36.534Z,2848.00
2019-05-11T04:30:36.524Z,3260.00
2019-05-11T04:31:36.513Z,3648.00
2019-05-11T04:32:36.503Z,3900.00
2019-05-11T04:33:36.491Z,3996.00
2019-05-11T04:34:36.479Z,4100.00
2019-05-11T04:35:36.473Z,4204.00
2019-05-11T04:36:36.460Z,4260.00
2019-05-11T04:37:36.464Z,4196.00
2019-05-11T04:38:36.437Z,4028.00
2019-05-11T04:39:36.425Z,3872.00
2019-05-11T04:40:36.425Z,3700.00
2019-05-11T04:41:36.409Z,3544.00
2019-05-11T04:42:53.293Z,3388.00
2019-05-11T04:43:37.383Z,3240.00
2019-05-11T04:44:36.375Z,3108.00
2019-05-11T04:45:36.362Z,3000.00
2019-05-11T04:46:36.360Z,2900.00
2019-05-11T04:47:36.452Z,2832.00
2019-05-11T04:48:36.330Z,2804.00
2019-05-11T04:49:36.318Z,2808.00
2019-05-11T04:50:36.308Z,2808.00
2019-05-11T04:51:36.299Z,2836.00
2019-05-11T04:52:36.287Z,2888.00
2019-05-11T04:53:36.278Z,2956.00
2019-05-11T04:54:36.271Z,3060.00
2019-05-11T04:55:36.254Z,3168.00
2019-05-11T04:56:36.244Z,3232.00
2019-05-11T04:57:36.233Z,3332.00
2019-05-11T04:58:36.223Z,3480.00
2019-05-11T04:59:36.215Z,3688.00
2019-05-11T05:00:36.199Z,3916.00
2019-05-11T05:01:36.194Z,4104.00
2019-05-11T05:02:36.177Z,4248.00
2019-05-11T05:03:40.746Z,4380.00
2019-05-11T05:04:37.156Z,4500.00
2019-05-11T05:05:36.152Z,4596.00
2019-05-11T05:06:38.840Z,4676.00
2019-05-11T05:07:36.128Z,4748.00
2019-05-11T05:08:36.117Z,4800.00
2019-05-11T05:09:42.404Z,4856.00
2019-05-11T05:10:37.094Z,4888.00
2019-05-11T05:11:36.595Z,4928.00
2019-05-11T05:12:36.071Z,4912.00
2019-05-11T05:13:36.060Z,4796.00
2019-05-11T05:14:36.049Z,4696.00
2019-05-11T05:15:36.039Z,4740.00
2019-05-11T05:16:36.029Z,4928.00
2019-05-11T05:17:36.017Z,5160.00
2019-05-11T05:18:36.012Z,5428.00
2019-05-11T05:19:35.996Z,5812.00
2019-05-11T05:20:35.986Z,6212.00
2019-05-11T05:21:35.980Z,6568.00
2019-05-11T05:22:35.965Z,6736.00
2019-05-11T05:23:35.957Z,6924.00
2019-05-11T05:24:35.948Z,7112.00
2019-05-11T05:25:35.936Z,7300.00
2019-05-11T05:26:35.920Z,7492.00
2019-05-11T05:27:35.911Z,7656.00
2019-05-11T05:28:35.899Z,7760.00
2019-05-11T05:29:35.895Z,7780.00
2019-05-11T05:30:35.882Z,7652.00
2019-05-11T05:31:35.866Z,7012.00
2019-05-11T05:32:35.876Z,6988.00
2019-05-11T05:33:35.858Z,6696.00
2019-05-11T05:34:35.834Z,6564.00
2019-05-11T05:35:35.827Z,6728.00
2019-05-11T05:36:35.814Z,7108.00
2019-05-11T05:37:35.800Z,7568.00
2019-05-11T05:38:35.789Z,8056.00
2019-05-11T05:39:35.778Z,8440.00
2019-05-11T05:40:35.769Z,8732.00
2019-05-11T05:41:35.758Z,8760.00
2019-05-11T05:42:35.746Z,8648.00
2019-05-11T05:43:35.735Z,8284.00
2019-05-11T05:44:35.725Z,7876.00
2019-05-11T05:45:35.717Z,7760.00
2019-05-11T05:46:35.703Z,7872.00
2019-05-11T05:47:35.691Z,8192.00
2019-05-11T05:48:35.683Z,8852.00
2019-05-11T05:49:35.675Z,9756.00
2019-05-11T05:50:35.659Z,10188.00
2019-05-11T05:51:35.648Z,10464.00
2019-05-11T05:52:35.638Z,10724.00
2019-05-11T05:53:35.629Z,10816.00
2019-05-11T05:54:35.617Z,10812.00
2019-05-11T05:55:35.605Z,10644.00
2019-05-11T05:56:35.596Z,10488.00
2019-05-11T05:57:35.584Z,10200.00
2019-05-11T05:58:35.587Z,9868.00
2019-05-11T05:59:35.562Z,9764.00
2019-05-11T06:00:35.554Z,9336.00
2019-05-11T06:01:35.542Z,9624.00
2019-05-11T06:02:35.534Z,9704.00
2019-05-11T06:03:35.521Z,9980.00
2019-05-11T06:04:35.509Z,9972.00
2019-05-11T06:05:35.504Z,10336.00
2019-05-11T06:06:35.488Z,9924.00
2019-05-11T06:07:35.477Z,10280.00
2019-05-11T06:08:35.470Z,11032.00
2019-05-11T06:09:35.454Z,10896.00
2019-05-11T06:10:35.443Z,11104.00
2019-05-11T06:11:35.435Z,11960.00
2019-05-11T06:12:35.423Z,12280.00
2019-05-11T06:13:45.377Z,10872.00
2019-05-11T06:14:36.406Z,11360.00
2019-05-11T06:15:35.393Z,9880.00
2019-05-11T06:16:35.380Z,11208.00
2019-05-11T06:17:35.378Z,9280.00
2019-05-11T06:18:35.358Z,9672.00
2019-05-11T06:19:35.347Z,11404.00
2019-05-11T06:20:35.338Z,11872.00
2019-05-11T06:21:35.327Z,12056.00
2019-05-11T06:22:35.316Z,11940.00
2019-05-11T06:23:35.305Z,11616.00
2019-05-11T06:24:35.294Z,12324.00
2019-05-11T06:25:35.289Z,12472.00
2019-05-11T06:26:35.274Z,11720.00
2019-05-11T06:27:35.261Z,12400.00
2019-05-11T06:28:35.261Z,12596.00
2019-05-11T06:29:35.242Z,12620.00
2019-05-11T06:30:35.233Z,12660.00
2019-05-11T06:31:35.232Z,12332.00
2019-05-11T06:32:35.213Z,12336.00
2019-05-11T06:33:35.198Z,12484.00
2019-05-11T06:34:35.187Z,12504.00
2019-05-11T06:35:35.177Z,12192.00
2019-05-11T06:36:35.163Z,12676.00
2019-05-11T06:37:35.152Z,12764.00
2019-05-11T06:38:35.146Z,12568.00
2019-05-11T06:39:35.134Z,12400.00
2019-05-11T06:40:35.119Z,12516.00
2019-05-11T06:41:35.109Z,11808.00
2019-05-11T06:42:35.099Z,12456.00
2019-05-11T06:43:35.088Z,12664.00
2019-05-11T06:44:35.076Z,12708.00
2019-05-11T06:45:35.073Z,12708.00
2019-05-11T06:46:35.378Z,12864.00
2019-05-11T06:47:35.048Z,12916.00
2019-05-11T06:48:35.032Z,13056.00
2019-05-11T06:49:35.022Z,13116.00
2019-05-11T06:50:35.012Z,13308.00
2019-05-11T06:51:35.015Z,13548.00
2019-05-11T06:52:34.991Z,13624.00
2019-05-11T06:53:34.985Z,13868.00
2019-05-11T06:54:34.968Z,14108.00
2019-05-11T06:55:34.957Z,14272.00
2019-05-11T06:56:34.947Z,14492.00
2019-05-11T06:57:34.940Z,14596.00
2019-05-11T06:58:34.926Z,14624.00
2019-05-11T06:59:34.930Z,14612.00
2019-05-11T07:00:34.903Z,14628.00
2019-05-11T07:01:34.892Z,14716.00
2019-05-11T07:02:34.881Z,14944.00
2019-05-11T07:03:34.871Z,15024.00
2019-05-11T07:04:34.859Z,15076.00
2019-05-11T07:05:34.853Z,15436.00
2019-05-11T07:06:34.838Z,15536.00
2019-05-11T07:07:47.178Z,14980.00
2019-05-11T07:08:35.815Z,14084.00
2019-05-11T07:09:34.810Z,15164.00
2019-05-11T07:10:34.795Z,15520.00
2019-05-11T07:11:34.785Z,14992.00
2019-05-11T07:12:34.773Z,14716.00
2019-05-11T07:13:34.856Z,14784.00
2019-05-11T07:14:34.752Z,14812.00
2019-05-11T07:15:34.741Z,14876.00
2019-05-11T07:16:34.742Z,14772.00
2019-05-11T07:17:34.721Z,15116.00
2019-05-11T07:18:34.714Z,15476.00
2019-05-11T07:19:34.700Z,15544.00
2019-05-11T07:20:49.455Z,15556.00
2019-05-11T07:21:35.680Z,15720.00
2019-05-11T07:22:34.688Z,15984.00
2019-05-11T07:23:34.675Z,16080.00
2019-05-11T07:24:34.646Z,16280.00
2019-05-11T07:25:34.638Z,16396.00
2019-05-11T07:26:34.627Z,16400.00
2019-05-11T07:27:34.614Z,16612.00
2019-05-11T07:28:34.603Z,16756.00
2019-05-11T07:29:34.598Z,17248.00
2019-05-11T07:30:34.582Z,17440.00
2019-05-11T07:31:34.574Z,17504.00
2019-05-11T07:32:34.562Z,17600.00
2019-05-11T07:33:34.552Z,17792.00
2019-05-11T07:34:34.539Z,17760.00
2019-05-11T07:35:34.528Z,17344.00
2019-05-11T07:36:34.520Z,18240.00
2019-05-11T07:37:34.506Z,18528.00
2019-05-11T07:38:34.497Z,18496.00
2019-05-11T07:39:34.509Z,18368.00
2019-05-11T07:40:34.483Z,18272.00
2019-05-11T07:41:34.505Z,17856.00
2019-05-11T07:42:34.461Z,17696.00
2019-05-11T07:43:34.455Z,16348.00
2019-05-11T07:44:38.497Z,18304.00
2019-05-11T07:45:35.420Z,19168.00
2019-05-11T07:46:34.428Z,19872.00
2019-05-11T07:47:34.403Z,20960.00
2019-05-11T07:48:34.390Z,27104.00
2019-05-11T07:49:34.381Z,48992.00
2019-05-11T07:50:34.369Z,65504.00
2019-05-11T07:51:34.367Z,69344.00
2019-05-11T07:52:34.354Z,72480.00
2019-05-11T07:53:34.339Z,72352.00
2019-05-11T07:54:34.324Z,74368.00
2019-05-11T07:55:34.314Z,77088.00
2019-05-11T07:56:34.306Z,79040.00
2019-05-11T07:57:34.293Z,79264.00
2019-05-11T07:58:34.282Z,80320.00
2019-05-11T07:59:34.271Z,82976.00
2019-05-11T08:00:36.464Z,82656.00
2019-05-11T08:01:35.251Z,81760.00
2019-05-11T08:02:34.243Z,79584.00
2019-05-11T08:03:34.230Z,77760.00
2019-05-11T08:04:34.218Z,80320.00
2019-05-11T08:05:34.209Z,78592.00
2019-05-11T08:06:34.198Z,78272.00
2019-05-11T08:07:34.189Z,69856.00
2019-05-11T08:08:34.177Z,70432.00
2019-05-11T08:09:34.181Z,71232.00
2019-05-11T08:10:34.173Z,82112.00
2019-05-11T08:11:34.153Z,86752.00
2019-05-11T08:12:34.139Z,88160.00
2019-05-11T08:13:34.128Z,85376.00
2019-05-11T08:14:34.114Z,83936.00
2019-05-11T08:15:34.103Z,78624.00
2019-05-11T08:16:34.097Z,84224.00
2019-05-11T08:17:34.084Z,89536.00
2019-05-11T08:18:34.073Z,82912.00
2019-05-11T08:19:34.064Z,78688.00
2019-05-11T08:20:34.054Z,84800.00
2019-05-11T08:21:34.045Z,88544.00
2019-05-11T08:22:34.033Z,88256.00
2019-05-11T08:23:34.023Z,90240.00
2019-05-11T08:24:34.019Z,84384.00
2019-05-11T08:25:34.003Z,92480.00
2019-05-11T08:26:33.994Z,90240.00
2019-05-11T08:27:33.982Z,91008.00
2019-05-11T08:28:33.985Z,69024.00
2019-05-11T08:29:33.971Z,89120.00
2019-05-11T08:30:33.952Z,86496.00
2019-05-11T08:31:33.939Z,77472.00
2019-05-11T08:32:33.934Z,46976.00
2019-05-11T08:33:33.922Z,39808.00
2019-05-11T08:34:33.922Z,29344.00
2019-05-11T08:35:33.900Z,23104.00
2019-05-11T08:36:33.894Z,22944.00
2019-05-11T08:37:33.887Z,24704.00
2019-05-11T08:38:33.871Z,65600.00
2019-05-11T08:39:33.860Z,37312.00
2019-05-11T08:40:33.849Z,30432.00
2019-05-11T08:41:33.840Z,28992.00
2019-05-11T08:42:33.826Z,20480.00
2019-05-11T08:43:33.820Z,19296.00
2019-05-11T08:44:33.807Z,18624.00
2019-05-11T08:45:33.795Z,18656.00
2019-05-11T08:46:33.788Z,19200.00
2019-05-11T08:47:33.771Z,20032.00
2019-05-11T08:48:33.764Z,20800.00
2019-05-11T08:49:33.754Z,21536.00
2019-05-11T08:50:33.747Z,22496.00
2019-05-11T08:51:34.636Z,24288.00
2019-05-11T08:52:33.722Z,27040.00
2019-05-11T08:53:33.709Z,29184.00
2019-05-11T08:54:33.699Z,36480.00
2019-05-11T08:55:33.689Z,47040.00
2019-05-11T08:56:33.678Z,96896.00
2019-05-11T08:57:33.670Z,61120.00
2019-05-11T08:58:33.656Z,52256.00
2019-05-11T08:59:33.647Z,40032.00
2019-05-11T09:00:33.637Z,38464.00
2019-05-11T09:01:33.626Z,40672.00
2019-05-11T09:02:33.645Z,71264.00
2019-05-11T09:03:33.608Z,45056.00
2019-05-11T09:04:33.593Z,58176.00
2019-05-11T09:05:33.587Z,53792.00
2019-05-11T09:06:33.574Z,93760.00
2019-05-11T09:07:33.567Z,41184.00
2019-05-11T09:08:33.552Z,35392.00
2019-05-11T09:09:33.547Z,34176.00
2019-05-11T09:10:36.843Z,33120.00
2019-05-11T09:11:34.519Z,34592.00
2019-05-11T09:12:33.511Z,73408.00
2019-05-11T09:13:33.504Z,53472.00
2019-05-11T09:14:33.493Z,38912.00
2019-05-11T09:15:38.287Z,29920.00
2019-05-11T09:16:34.466Z,29280.00
2019-05-11T09:17:33.456Z,27296.00
2019-05-11T09:18:33.446Z,25984.00
2019-05-11T09:19:33.447Z,25120.00
2019-05-11T09:20:33.424Z,26688.00
2019-05-11T09:21:33.425Z,24864.00
2019-05-11T09:22:34.139Z,23296.00
2019-05-11T09:23:37.503Z,22336.00
2019-05-11T09:24:34.383Z,22528.00
2019-05-11T09:25:33.374Z,22176.00
2019-05-11T09:26:33.363Z,22112.00
2019-05-11T09:27:33.354Z,22208.00
2019-05-11T09:28:33.339Z,21664.00
2019-05-11T09:29:33.331Z,21216.00
2019-05-11T09:30:33.316Z,20832.00
2019-05-11T09:31:33.310Z,20224.00
2019-05-11T09:32:33.296Z,19872.00
2019-05-11T09:33:33.285Z,19616.00
2019-05-11T09:34:33.277Z,19168.00
2019-05-11T09:35:46.695Z,18944.00
2019-05-11T09:36:34.276Z,18976.00
2019-05-11T09:37:33.242Z,19264.00
2019-05-11T09:38:33.231Z,22080.00
2019-05-11T09:39:33.223Z,21376.00
2019-05-11T09:40:33.212Z,21120.00
2019-05-11T09:41:33.201Z,23168.00
2019-05-11T09:42:33.187Z,25952.00
2019-05-11T09:43:33.177Z,27360.00
2019-05-11T09:44:33.169Z,30112.00
2019-05-11T09:45:44.630Z,29632.00
2019-05-11T09:46:34.144Z,42784.00
2019-05-11T09:47:33.135Z,35712.00
2019-05-11T09:48:33.129Z,29856.00
2019-05-11T09:49:43.824Z,33088.00
2019-05-11T09:50:34.103Z,31712.00
2019-05-11T09:51:33.092Z,37216.00
2019-05-11T09:52:33.081Z,38688.00
2019-05-11T09:53:33.074Z,35040.00
2019-05-11T09:54:33.062Z,30848.00
2019-05-11T09:55:33.387Z,26560.00
2019-05-11T09:56:33.081Z,27808.00
2019-05-11T09:57:33.035Z,26496.00
2019-05-11T09:58:33.017Z,26368.00
2019-05-11T09:59:33.011Z,29376.00
2019-05-11T10:00:32.994Z,24992.00
2019-05-11T10:01:32.984Z,24256.00
2019-05-11T10:02:32.980Z,24448.00
2019-05-11T10:03:32.962Z,24384.00
2019-05-11T10:04:32.953Z,23136.00
2019-05-11T10:05:32.943Z,23616.00
2019-05-11T10:06:32.933Z,22272.00
2019-05-11T10:07:32.921Z,21088.00
2019-05-11T10:08:32.909Z,19968.00
2019-05-11T10:09:32.902Z,19296.00
2019-05-11T10:10:32.886Z,18912.00
2019-05-11T10:11:32.878Z,18592.00
2019-05-11T10:12:32.866Z,18496.00
2019-05-11T10:13:32.855Z,18496.00
2019-05-11T10:14:32.846Z,18656.00
2019-05-11T10:15:32.853Z,18976.00
2019-05-11T10:16:32.830Z,19328.00
2019-05-11T10:17:32.833Z,19744.00
2019-05-11T10:18:32.808Z,20288.00
2019-05-11T10:19:32.794Z,21184.00
2019-05-11T10:20:32.787Z,21632.00
2019-05-11T10:21:32.771Z,21728.00
2019-05-11T10:22:32.767Z,21600.00
2019-05-11T10:23:32.749Z,21536.00
2019-05-11T10:24:32.744Z,21280.00
2019-05-11T10:25:32.727Z,21280.00
2019-05-11T10:26:32.715Z,21440.00
2019-05-11T10:27:32.708Z,21216.00
2019-05-11T10:28:32.694Z,21184.00
2019-05-11T10:29:34.009Z,20896.00
2019-05-11T10:30:32.677Z,20960.00
2019-05-11T10:31:32.664Z,20800.00
2019-05-11T10:32:32.652Z,21120.00
2019-05-11T10:33:32.647Z,20928.00
2019-05-11T10:34:32.629Z,20480.00
2019-05-11T10:35:32.622Z,19936.00
2019-05-11T10:36:32.614Z,18912.00
2019-05-11T10:37:32.597Z,18080.00
2019-05-11T10:38:32.590Z,17600.00
2019-05-11T10:39:32.576Z,17408.00
2019-05-11T10:40:32.568Z,17664.00
2019-05-11T10:41:32.554Z,18304.00
2019-05-11T10:42:32.544Z,19232.00
2019-05-11T10:43:32.534Z,19968.00
2019-05-11T10:44:32.523Z,20480.00
2019-05-11T10:45:32.513Z,20608.00
2019-05-11T10:46:32.505Z,20544.00
2019-05-11T10:47:32.531Z,20608.00
2019-05-11T10:48:32.501Z,20736.00
2019-05-11T10:49:32.468Z,20832.00
2019-05-11T10:50:32.465Z,20896.00
2019-05-11T10:51:32.449Z,20544.00
2019-05-11T10:52:32.436Z,20704.00
2019-05-11T10:53:32.424Z,21248.00
2019-05-11T10:54:32.418Z,21280.00
2019-05-11T10:55:32.405Z,21536.00
2019-05-11T10:56:32.394Z,21536.00
2019-05-11T10:57:32.388Z,21216.00
2019-05-11T10:58:32.372Z,20992.00
2019-05-11T10:59:32.362Z,20704.00
2019-05-11T11:00:32.350Z,20608.00
2019-05-11T11:01:32.339Z,20832.00
2019-05-11T11:02:32.332Z,20672.00
2019-05-11T11:03:32.319Z,21568.00
2019-05-11T11:04:32.308Z,21856.00
2019-05-11T11:05:32.302Z,22816.00
2019-05-11T11:06:32.286Z,23808.00
2019-05-11T11:07:32.275Z,24448.00
2019-05-11T11:08:32.265Z,24288.00
2019-05-11T11:09:32.253Z,23520.00
2019-05-11T11:10:32.270Z,22784.00
2019-05-11T11:11:32.234Z,21888.00
2019-05-11T11:12:32.221Z,21344.00
2019-05-11T11:13:32.210Z,20064.00
2019-05-11T11:14:32.204Z,19040.00
2019-05-11T11:15:32.191Z,18656.00
2019-05-11T11:16:39.237Z,18336.00
2019-05-11T11:17:33.201Z,18432.00
2019-05-11T11:18:32.158Z,18240.00
2019-05-11T11:19:32.147Z,18176.00
2019-05-11T11:20:32.139Z,18080.00
2019-05-11T11:21:32.125Z,17760.00
2019-05-11T11:22:39.813Z,17024.00
2019-05-11T11:23:33.107Z,16512.00
2019-05-11T11:24:32.096Z,16216.00
2019-05-11T11:25:32.085Z,14968.00
2019-05-11T11:26:32.076Z,14584.00
2019-05-11T11:27:32.061Z,14276.00
2019-05-11T11:28:32.052Z,14340.00
2019-05-11T11:29:32.042Z,14676.00
2019-05-11T11:30:32.033Z,14480.00
2019-05-11T11:31:32.077Z,13952.00
2019-05-11T11:32:32.015Z,13304.00
2019-05-11T11:33:31.999Z,12856.00
2019-05-11T11:34:31.991Z,12448.00
2019-05-11T11:35:31.987Z,11988.00
2019-05-11T11:36:31.966Z,11608.00
2019-05-11T11:37:31.953Z,11292.00
2019-05-11T11:38:31.945Z,11036.00
2019-05-11T11:39:31.957Z,10840.00
2019-05-11T11:40:31.921Z,10668.00
2019-05-11T11:41:31.917Z,10544.00
2019-05-11T11:42:31.906Z,10536.00
2019-05-11T11:43:31.889Z,10632.00
2019-05-11T11:44:31.932Z,10616.00
2019-05-11T11:45:31.869Z,10508.00
2019-05-11T11:46:31.858Z,10416.00
2019-05-11T11:47:31.846Z,10376.00
2019-05-11T11:48:31.834Z,10400.00
2019-05-11T11:49:31.829Z,10464.00
2019-05-11T11:50:31.844Z,10564.00
2019-05-11T11:51:31.806Z,10676.00
2019-05-11T11:52:31.793Z,10692.00
2019-05-11T11:53:31.783Z,10592.00
2019-05-11T11:54:31.778Z,10376.00
2019-05-11T11:55:31.769Z,10124.00
2019-05-11T11:56:31.753Z,9932.00
2019-05-11T11:57:31.740Z,9780.00
2019-05-11T11:58:31.737Z,9652.00
2019-05-11T11:59:31.718Z,9532.00
2019-05-11T12:00:31.705Z,9504.00
2019-05-11T12:01:31.696Z,9592.00
2019-05-11T12:02:31.686Z,9820.00
2019-05-11T12:03:31.673Z,10116.00
2019-05-11T12:04:31.662Z,10440.00
2019-05-11T12:05:31.659Z,10732.00
2019-05-11T12:06:31.638Z,10876.00
2019-05-11T12:07:31.628Z,10892.00
2019-05-11T12:08:31.617Z,10904.00
2019-05-11T12:09:31.606Z,10864.00
2019-05-11T12:10:31.596Z,10764.00
2019-05-11T12:11:31.584Z,10628.00
2019-05-11T12:12:31.574Z,10448.00
2019-05-11T12:13:31.565Z,10228.00